createdAt,value
2017-09-11T00:01:40.147Z,14.91
2017-09-11T00:04:07.535Z,14.92
2017-09-11T00:06:35.040Z,14.94
2017-09-11T00:09:02.425Z,14.97
2017-09-11T00:11:29.818Z,15.00
2017-09-11T00:13:57.218Z,15.00
2017-09-11T00:16:24.603Z,14.97
2017-09-11T00:18:52.146Z,14.98
2017-09-11T00:21:19.531Z,15.00
2017-09-11T00:23:46.927Z,15.05
2017-09-11T00:26:14.326Z,15.09
2017-09-11T00:28:41.715Z,15.08
2017-09-11T00:31:09.142Z,15.11
2017-09-11T00:33:36.533Z,15.11
2017-09-11T00:36:03.914Z,15.12
2017-09-11T00:38:31.362Z,15.14
2017-09-11T00:40:58.730Z,15.15
2017-09-11T00:43:26.643Z,15.18
2017-09-11T00:45:54.022Z,15.16
2017-09-11T00:48:21.411Z,15.19
2017-09-11T00:50:48.794Z,15.24
2017-09-11T00:53:16.234Z,15.26
2017-09-11T00:55:43.650Z,15.26
2017-09-11T00:58:11.035Z,15.22
2017-09-11T01:00:38.418Z,15.23
2017-09-11T01:03:05.818Z,15.24
2017-09-11T01:05:33.197Z,15.28
2017-09-11T01:08:00.735Z,15.32
2017-09-11T01:10:28.118Z,15.31
2017-09-11T01:12:55.514Z,15.31
2017-09-11T01:15:22.914Z,15.33
2017-09-11T01:17:50.298Z,15.39
2017-09-11T01:20:17.694Z,15.44
2017-09-11T01:22:45.079Z,15.48
2017-09-11T01:25:12.479Z,15.48
2017-09-11T01:27:39.874Z,15.55
2017-09-11T01:30:07.263Z,15.51
2017-09-11T01:32:34.678Z,15.55
2017-09-11T01:35:02.062Z,15.58
2017-09-11T01:37:29.455Z,15.59
2017-09-11T01:39:57.028Z,15.56
2017-09-11T01:42:24.411Z,15.59
2017-09-11T01:44:51.822Z,15.62
2017-09-11T01:47:19.216Z,15.64
2017-09-11T01:49:46.606Z,15.62
2017-09-11T01:52:13.991Z,15.61
2017-09-11T01:54:41.388Z,15.62
2017-09-11T01:57:08.918Z,15.65
2017-09-11T01:59:36.306Z,15.63
2017-09-11T02:02:03.694Z,15.63
2017-09-11T02:04:31.094Z,15.65
2017-09-11T02:06:58.471Z,15.66
2017-09-11T02:09:25.874Z,15.66
2017-09-11T02:11:53.260Z,15.73
2017-09-11T02:14:20.639Z,15.72
2017-09-11T02:16:48.039Z,15.76
2017-09-11T02:19:15.438Z,15.78
2017-09-11T02:21:42.983Z,15.75
2017-09-11T02:24:10.376Z,15.84
2017-09-11T02:26:37.779Z,15.82
2017-09-11T02:29:05.170Z,15.86
2017-09-11T02:31:32.565Z,15.88
2017-09-11T02:34:00.098Z,15.90
2017-09-11T02:36:27.483Z,15.96
2017-09-11T02:38:54.867Z,16.00
2017-09-11T02:41:22.255Z,16.01
2017-09-11T02:43:49.637Z,16.05
2017-09-11T02:46:17.038Z,16.07
2017-09-11T02:48:44.430Z,16.03
2017-09-11T02:51:12.182Z,16.08
2017-09-11T02:53:39.586Z,16.07
2017-09-11T02:56:06.986Z,16.11
2017-09-11T02:58:34.375Z,16.08
2017-09-11T03:01:01.758Z,16.11
2017-09-11T03:03:29.303Z,16.13
2017-09-11T03:05:56.682Z,16.18
2017-09-11T03:08:24.063Z,16.18
2017-09-11T03:10:51.449Z,16.22
2017-09-11T03:13:18.834Z,16.18
2017-09-11T03:15:46.471Z,16.19
2017-09-11T03:18:13.855Z,16.20
2017-09-11T03:20:41.240Z,16.21
2017-09-11T03:23:08.631Z,16.13
2017-09-11T03:25:36.010Z,16.17
2017-09-11T03:28:03.551Z,16.12
2017-09-11T03:30:30.927Z,16.11
2017-09-11T03:32:58.313Z,16.10
2017-09-11T03:35:25.697Z,16.04
2017-09-11T03:37:53.196Z,16.03
2017-09-11T03:40:20.747Z,15.96
2017-09-11T03:42:48.127Z,15.92
2017-09-11T03:45:15.527Z,15.91
2017-09-11T03:47:42.918Z,15.95
2017-09-11T03:50:10.310Z,15.96
2017-09-11T03:52:37.723Z,15.97
2017-09-11T03:55:05.107Z,15.97
2017-09-11T03:57:32.489Z,16.00
2017-09-11T03:59:59.875Z,15.97
2017-09-11T04:02:27.259Z,15.99
2017-09-11T04:04:54.664Z,16.00
2017-09-11T04:07:22.046Z,15.93
2017-09-11T04:09:49.431Z,15.93
2017-09-11T04:12:16.826Z,15.95
2017-09-11T04:14:44.211Z,15.94
2017-09-11T04:17:11.750Z,15.92
2017-09-11T04:19:49.173Z,15.78
2017-09-11T04:22:16.558Z,15.80
2017-09-11T04:24:43.946Z,15.77
2017-09-11T04:27:11.330Z,15.73
2017-09-11T04:29:38.724Z,15.76
2017-09-11T04:32:06.102Z,15.77
2017-09-11T04:34:33.647Z,15.76
2017-09-11T04:37:01.038Z,15.74
2017-09-11T04:39:28.423Z,15.69
2017-09-11T04:41:55.806Z,15.55
2017-09-11T04:44:23.191Z,15.57
2017-09-11T04:46:50.610Z,15.55
2017-09-11T04:49:17.998Z,15.55
2017-09-11T04:51:45.388Z,15.58
2017-09-11T04:54:12.780Z,15.54
2017-09-11T04:56:40.157Z,15.57
2017-09-11T04:59:07.546Z,15.48
2017-09-11T05:01:35.889Z,15.55
2017-09-11T05:04:03.346Z,15.50
2017-09-11T05:06:30.726Z,15.44
2017-09-11T05:08:58.125Z,15.28
2017-09-11T05:11:25.515Z,15.28
2017-09-11T05:13:53.059Z,15.27
2017-09-11T05:16:20.442Z,15.20
2017-09-11T05:18:47.831Z,15.12
2017-09-11T05:21:15.211Z,15.10
2017-09-11T05:23:42.607Z,15.13
2017-09-11T05:26:10.392Z,15.09
2017-09-11T05:28:37.769Z,15.07
2017-09-11T05:31:05.155Z,15.02
2017-09-11T05:33:32.577Z,14.93
2017-09-11T05:35:59.926Z,14.90
2017-09-11T05:38:27.462Z,14.95
2017-09-11T05:40:54.854Z,14.82
2017-09-11T05:43:22.233Z,14.67
2017-09-11T05:45:49.627Z,14.40
2017-09-11T05:48:17.012Z,14.28
2017-09-11T05:50:44.432Z,14.27
2017-09-11T05:53:11.814Z,14.15
2017-09-11T05:55:39.198Z,13.88
2017-09-11T05:58:06.587Z,13.84
2017-09-11T06:00:33.970Z,13.76
2017-09-11T06:03:01.832Z,13.85
2017-09-11T06:05:29.216Z,13.80
2017-09-11T06:07:56.595Z,13.68
2017-09-11T06:10:23.986Z,13.76
2017-09-11T06:12:51.366Z,13.73
2017-09-11T06:15:18.898Z,13.74
2017-09-11T06:17:46.282Z,13.72
2017-09-11T06:20:13.666Z,13.76
2017-09-11T06:22:41.055Z,13.76
2017-09-11T06:25:08.443Z,13.79
2017-09-11T06:27:35.864Z,13.82
2017-09-11T06:30:03.242Z,13.91
2017-09-11T06:32:30.633Z,14.01
2017-09-11T06:34:58.019Z,14.08
2017-09-11T06:37:25.402Z,14.15
2017-09-11T06:39:52.806Z,14.19
2017-09-11T06:42:20.181Z,14.30
2017-09-11T06:44:47.570Z,14.39
2017-09-11T06:47:14.962Z,14.47
2017-09-11T06:49:42.341Z,14.55
2017-09-11T06:52:10.158Z,14.69
2017-09-11T06:54:37.539Z,14.78
2017-09-11T06:57:04.924Z,14.87
2017-09-11T06:59:32.302Z,14.95
2017-09-11T07:01:59.686Z,15.01
2017-09-11T07:04:27.103Z,15.09
2017-09-11T07:06:54.483Z,15.14
2017-09-11T07:09:21.874Z,15.18
2017-09-11T07:11:49.269Z,15.19
2017-09-11T07:14:16.650Z,15.25
2017-09-11T07:16:44.049Z,15.33
2017-09-11T07:19:11.430Z,15.36
2017-09-11T07:21:38.922Z,15.39
2017-09-11T07:24:06.314Z,15.42
2017-09-11T07:26:33.694Z,15.38
2017-09-11T07:29:01.086Z,15.29
2017-09-11T07:31:28.471Z,15.22
2017-09-11T07:33:56.014Z,15.19
2017-09-11T07:36:23.394Z,15.33
2017-09-11T07:38:50.774Z,15.42
2017-09-11T07:41:18.171Z,15.34
2017-09-11T07:43:45.551Z,15.19
2017-09-11T07:46:13.086Z,15.15
2017-09-11T07:48:40.472Z,14.90
2017-09-11T07:51:07.858Z,14.84
2017-09-11T07:53:35.247Z,14.78
2017-09-11T07:56:02.638Z,14.76
2017-09-11T07:58:30.183Z,14.77
2017-09-11T08:00:57.570Z,14.80
2017-09-11T08:03:24.963Z,14.91
2017-09-11T08:05:52.359Z,14.95
2017-09-11T08:08:19.743Z,15.07
2017-09-11T08:10:47.136Z,15.24
2017-09-11T08:13:14.788Z,15.40
2017-09-11T08:15:42.171Z,15.54
2017-09-11T08:18:09.555Z,15.63
2017-09-11T08:20:36.965Z,15.72
2017-09-11T08:23:04.349Z,15.81
2017-09-11T08:25:31.730Z,15.82
2017-09-11T08:27:59.226Z,15.93
2017-09-11T08:30:26.609Z,16.02
2017-09-11T08:32:53.990Z,16.09
2017-09-11T08:35:21.395Z,16.28
2017-09-11T08:37:50.695Z,16.37
2017-09-11T08:40:18.087Z,16.52
2017-09-11T08:42:45.580Z,16.71
2017-09-11T08:45:12.972Z,17.03
2017-09-11T08:47:40.350Z,17.04
2017-09-11T08:50:07.859Z,17.05
2017-09-11T08:52:35.238Z,16.90
2017-09-11T08:55:02.626Z,16.80
2017-09-11T08:57:30.178Z,16.65
2017-09-11T08:59:57.583Z,16.61
2017-09-11T09:02:24.976Z,16.81
2017-09-11T09:04:52.370Z,17.10
2017-09-11T09:07:19.763Z,17.42
2017-09-11T09:12:14.178Z,17.72
2017-09-11T09:14:41.571Z,18.00
2017-09-11T09:17:08.967Z,17.98
2017-09-11T09:19:36.347Z,17.97
2017-09-11T09:22:03.771Z,17.86
2017-09-11T09:24:31.154Z,17.98
2017-09-11T09:26:58.536Z,18.00
2017-09-11T09:29:25.926Z,18.30
2017-09-11T09:31:53.320Z,18.46
2017-09-11T09:34:21.119Z,18.96
2017-09-11T09:36:48.502Z,19.32
2017-09-11T09:39:15.895Z,19.73
2017-09-11T09:41:43.279Z,19.76
2017-09-11T09:44:10.667Z,20.09
2017-09-11T09:46:38.059Z,19.87
2017-09-11T09:49:05.448Z,19.86
2017-09-11T09:51:32.833Z,19.30
2017-09-11T09:54:00.230Z,19.47
2017-09-11T09:56:27.614Z,19.00
2017-09-11T09:58:55.155Z,19.32
2017-09-11T10:01:22.539Z,19.27
2017-09-11T10:03:49.930Z,19.45
2017-09-11T10:06:17.322Z,19.40
2017-09-11T10:08:44.711Z,19.26
2017-09-11T10:11:12.118Z,18.84
2017-09-11T10:13:39.502Z,19.06
2017-09-11T10:16:06.893Z,19.20
2017-09-11T10:18:34.293Z,19.12
2017-09-11T10:21:01.666Z,18.97
2017-09-11T10:23:29.202Z,18.77
2017-09-11T10:25:56.590Z,18.69
2017-09-11T10:29:00.118Z,18.49
2017-09-11T10:31:27.506Z,18.30
2017-09-11T10:33:55.038Z,18.21
2017-09-11T10:36:22.419Z,18.46
2017-09-11T10:38:49.802Z,19.17
2017-09-11T10:41:17.200Z,19.26
2017-09-11T10:43:44.588Z,19.09
2017-09-11T10:46:12.139Z,19.15
2017-09-11T10:48:39.528Z,19.64
2017-09-11T10:51:06.913Z,19.51
2017-09-11T10:53:34.300Z,19.43
2017-09-11T10:56:01.682Z,19.52
2017-09-11T10:58:29.443Z,19.53
2017-09-11T11:00:56.832Z,19.41
2017-09-11T11:03:24.214Z,19.67
2017-09-11T11:05:52.061Z,19.29
2017-09-11T11:08:19.439Z,19.16
2017-09-11T11:10:46.976Z,19.14
2017-09-11T11:13:14.364Z,18.72
2017-09-11T11:15:41.750Z,18.49
2017-09-11T11:18:09.150Z,18.28
2017-09-11T11:20:36.530Z,18.29
2017-09-11T11:23:03.912Z,18.32
2017-09-11T11:25:31.299Z,18.22
2017-09-11T11:27:58.687Z,18.36
2017-09-11T11:30:26.070Z,18.40
2017-09-11T11:32:53.459Z,18.39
2017-09-11T11:35:20.842Z,18.71
2017-09-11T11:37:48.386Z,19.11
2017-09-11T11:40:15.771Z,19.52
2017-09-11T11:42:43.155Z,19.28
2017-09-11T11:45:10.571Z,19.01
2017-09-11T11:47:37.958Z,19.03
2017-09-11T11:50:05.356Z,19.01
2017-09-11T11:52:32.738Z,18.94
2017-09-11T11:55:00.128Z,19.07
2017-09-11T11:57:27.618Z,18.99
2017-09-11T11:59:55.006Z,19.13
2017-09-11T12:02:22.398Z,19.27
2017-09-11T12:04:49.781Z,19.08
2017-09-11T12:07:17.170Z,19.23
2017-09-11T12:09:47.435Z,19.35
2017-09-11T12:12:14.828Z,19.79
2017-09-11T12:14:42.219Z,19.84
2017-09-11T12:17:09.607Z,19.88
2017-09-11T12:19:36.999Z,19.66
2017-09-11T12:22:04.549Z,19.69
2017-09-11T12:24:31.926Z,19.49
2017-09-11T12:26:59.321Z,19.30
2017-09-11T12:29:26.710Z,19.06
2017-09-11T12:31:54.102Z,19.00
2017-09-11T12:34:21.967Z,18.97
2017-09-11T12:36:49.347Z,19.11
2017-09-11T12:39:16.731Z,19.05
2017-09-11T12:41:44.114Z,19.09
2017-09-11T12:44:11.494Z,19.31
2017-09-11T12:46:39.029Z,19.61
2017-09-11T12:49:06.412Z,19.79
2017-09-11T12:51:33.802Z,19.58
2017-09-11T12:54:01.194Z,19.50
2017-09-11T12:56:28.579Z,19.47
2017-09-11T12:58:56.119Z,19.39
2017-09-11T13:01:23.508Z,19.16
2017-09-11T13:03:50.886Z,18.75
2017-09-11T13:06:18.270Z,18.44
2017-09-11T13:08:45.655Z,18.41
2017-09-11T13:11:13.411Z,18.75
2017-09-11T13:13:40.790Z,19.06
2017-09-11T13:16:08.182Z,19.52
2017-09-11T13:18:35.579Z,19.60
2017-09-11T13:21:02.955Z,19.63
2017-09-11T13:23:30.370Z,19.43
2017-09-11T13:25:57.751Z,19.52
2017-09-11T13:28:25.140Z,19.60
2017-09-11T13:30:52.532Z,19.62
2017-09-11T13:33:19.911Z,19.80
2017-09-11T13:35:47.457Z,19.52
2017-09-11T13:38:14.855Z,19.23
2017-09-11T13:40:42.238Z,19.34
2017-09-11T13:43:09.631Z,19.70
2017-09-11T13:45:37.027Z,19.88
2017-09-11T13:48:04.527Z,19.69
2017-09-11T13:50:31.922Z,19.86
2017-09-11T13:52:59.304Z,19.84
2017-09-11T13:55:26.694Z,19.69
2017-09-11T13:57:54.081Z,19.64
2017-09-11T14:00:21.498Z,19.76
2017-09-11T14:02:48.882Z,19.58
2017-09-11T14:05:16.307Z,19.53
2017-09-11T14:07:43.704Z,19.63
2017-09-11T14:10:11.124Z,19.69
2017-09-11T14:12:38.701Z,19.60
2017-09-11T14:15:06.082Z,19.87
2017-09-11T14:17:33.474Z,20.03
2017-09-11T14:20:00.862Z,20.13
2017-09-11T14:22:28.252Z,20.07
2017-09-11T14:24:55.674Z,19.95
2017-09-11T14:27:23.066Z,19.87
2017-09-11T14:29:50.450Z,19.81
2017-09-11T14:32:17.843Z,19.71
2017-09-11T14:34:45.628Z,19.65
2017-09-11T14:37:13.111Z,19.31
2017-09-11T14:39:40.494Z,19.18
2017-09-11T14:42:08.002Z,19.07
2017-09-11T14:44:35.386Z,19.15
2017-09-11T14:47:02.783Z,19.29
2017-09-11T14:49:30.163Z,19.18
2017-09-11T14:51:57.598Z,19.08
2017-09-11T14:54:25.059Z,19.09
2017-09-11T14:56:52.438Z,19.06
2017-09-11T15:01:49.843Z,19.13
2017-09-11T15:04:17.236Z,19.12
2017-09-11T15:06:44.613Z,19.18
2017-09-11T15:09:12.107Z,19.28
2017-09-11T15:11:39.491Z,19.20
2017-09-11T15:14:06.892Z,19.20
2017-09-11T15:16:34.295Z,19.41
2017-09-11T15:19:01.687Z,19.36
2017-09-11T15:21:29.079Z,19.40
2017-09-11T15:23:56.514Z,19.42
2017-09-11T15:26:23.902Z,19.59
2017-09-11T15:28:51.310Z,19.41
2017-09-11T15:31:18.695Z,19.54
2017-09-11T15:33:46.101Z,19.52
2017-09-11T15:36:13.478Z,19.52
2017-09-11T15:38:40.872Z,19.43
2017-09-11T15:41:08.408Z,19.34
2017-09-11T15:43:35.794Z,19.28
2017-09-11T15:46:03.177Z,19.23
2017-09-11T15:48:30.591Z,19.04
2017-09-11T15:50:57.974Z,19.03
2017-09-11T15:53:25.382Z,18.98
2017-09-11T15:55:52.775Z,18.90
2017-09-11T15:58:20.158Z,18.85
2017-09-11T16:00:47.766Z,18.87
2017-09-11T16:03:15.151Z,18.85
2017-09-11T16:05:42.536Z,18.88
2017-09-11T16:08:09.923Z,18.88
2017-09-11T16:10:47.356Z,18.85
2017-09-11T16:13:14.849Z,18.76
2017-09-11T16:15:42.226Z,18.71
2017-09-11T16:18:09.613Z,18.71
2017-09-11T16:20:37.046Z,18.64
2017-09-11T16:23:04.428Z,18.64
2017-09-11T16:25:31.844Z,18.68
2017-09-11T16:27:59.235Z,18.62
2017-09-11T16:30:26.618Z,18.60
2017-09-11T16:32:54.166Z,18.53
2017-09-11T16:35:21.552Z,18.58
2017-09-11T16:37:48.943Z,18.59
2017-09-11T16:40:16.335Z,18.59
2017-09-11T16:42:43.718Z,18.58
2017-09-11T16:45:11.104Z,18.49
2017-09-11T16:47:38.503Z,18.52
2017-09-11T16:50:05.905Z,18.46
2017-09-11T16:52:33.354Z,18.46
2017-09-11T16:55:03.124Z,18.41
2017-09-11T16:57:30.529Z,18.37
2017-09-11T16:59:57.933Z,18.24
2017-09-11T17:02:25.322Z,18.25
2017-09-11T17:04:52.714Z,18.17
2017-09-11T17:07:20.162Z,18.17
2017-09-11T17:09:47.567Z,18.22
2017-09-11T17:12:14.976Z,18.25
2017-09-11T17:14:42.371Z,18.27
2017-09-11T17:17:09.755Z,18.23
2017-09-11T17:19:37.173Z,18.17
2017-09-11T17:22:04.558Z,17.96
2017-09-11T17:24:31.939Z,17.85
2017-09-11T17:26:59.334Z,17.68
2017-09-11T17:29:26.719Z,17.60
2017-09-11T17:31:54.094Z,17.60
2017-09-11T17:34:21.899Z,17.58
2017-09-11T17:36:49.285Z,17.52
2017-09-11T17:39:16.677Z,17.54
2017-09-11T17:41:44.070Z,17.56
2017-09-11T17:44:11.457Z,17.50
2017-09-11T17:46:38.834Z,17.57
2017-09-11T17:49:06.246Z,17.60
2017-09-11T17:51:33.636Z,17.65
2017-09-11T17:54:01.010Z,17.58
2017-09-11T17:56:28.402Z,17.65
2017-09-11T17:58:55.785Z,17.65
2017-09-11T18:01:23.527Z,17.61
2017-09-11T18:03:50.911Z,17.62
2017-09-11T18:06:18.291Z,17.67
2017-09-11T18:08:45.679Z,17.66
2017-09-11T18:11:13.062Z,17.47
2017-09-11T18:13:40.806Z,17.16
2017-09-11T18:16:08.187Z,16.96
2017-09-11T18:18:35.571Z,16.71
2017-09-11T18:21:02.958Z,16.54
2017-09-11T18:23:30.339Z,16.45
2017-09-11T18:25:57.872Z,16.41
2017-09-11T18:28:25.250Z,16.41
2017-09-11T18:30:52.630Z,16.51
2017-09-11T18:33:20.022Z,16.56
2017-09-11T18:35:47.406Z,16.60
2017-09-11T18:38:15.184Z,16.66
2017-09-11T18:40:42.564Z,16.65
2017-09-11T18:43:09.951Z,16.70
2017-09-11T18:45:37.347Z,16.63
2017-09-11T18:48:04.727Z,16.70
2017-09-11T18:50:32.273Z,16.70
2017-09-11T18:52:59.648Z,16.76
2017-09-11T18:55:27.030Z,16.83
2017-09-11T18:57:54.424Z,16.74
2017-09-11T19:00:21.808Z,16.75
2017-09-11T19:02:49.213Z,16.71
2017-09-11T19:05:16.591Z,16.65
2017-09-11T19:07:43.974Z,16.64
2017-09-11T19:10:11.407Z,16.66
2017-09-11T19:12:38.791Z,16.57
2017-09-11T19:15:06.634Z,16.56
2017-09-11T19:17:34.015Z,16.56
2017-09-11T19:20:01.408Z,16.60
2017-09-11T19:22:28.793Z,16.54
2017-09-11T19:24:56.179Z,16.57
2017-09-11T19:27:23.607Z,16.47
2017-09-11T19:29:50.993Z,16.45
2017-09-11T19:32:18.382Z,16.30
2017-09-11T19:34:45.768Z,16.29
2017-09-11T19:37:13.154Z,16.18
2017-09-11T19:39:40.697Z,16.10
2017-09-11T19:42:08.086Z,16.02
2017-09-11T19:44:35.471Z,16.04
2017-09-11T19:47:02.868Z,15.99
2017-09-11T19:49:30.242Z,15.97
2017-09-11T19:51:57.738Z,15.99
2017-09-11T19:54:25.118Z,15.89
2017-09-11T19:56:52.514Z,15.83
2017-09-11T19:59:19.922Z,15.81
2017-09-11T20:01:47.322Z,15.71
2017-09-11T20:04:14.865Z,15.69
2017-09-11T20:06:42.247Z,15.73
2017-09-11T20:09:09.626Z,15.74
2017-09-11T20:11:37.014Z,15.75
2017-09-11T20:14:04.416Z,15.76
2017-09-11T20:16:31.943Z,15.78
2017-09-11T20:18:59.340Z,15.75
2017-09-11T20:21:26.722Z,15.72
2017-09-11T20:23:54.115Z,15.69
2017-09-11T20:26:21.492Z,15.65
2017-09-11T20:28:49.036Z,15.65
2017-09-11T20:31:16.419Z,15.66
2017-09-11T20:33:43.818Z,15.64
2017-09-11T20:36:11.210Z,15.63
2017-09-11T20:38:38.599Z,15.62
2017-09-11T20:41:06.000Z,15.63
2017-09-11T20:43:33.374Z,15.66
2017-09-11T20:46:00.763Z,15.69
2017-09-11T20:48:28.147Z,15.76
2017-09-11T20:50:55.531Z,15.81
2017-09-11T20:53:23.066Z,15.83
2017-09-11T20:55:50.451Z,15.87
2017-09-11T20:58:17.846Z,15.85
2017-09-11T21:00:45.238Z,15.84
2017-09-11T21:03:12.623Z,15.81
2017-09-11T21:05:40.163Z,15.77
2017-09-11T21:08:07.543Z,15.73
2017-09-11T21:10:34.969Z,15.73
2017-09-11T21:13:02.323Z,15.75
2017-09-11T21:15:29.706Z,15.79
2017-09-11T21:17:57.250Z,15.83
2017-09-11T21:20:24.634Z,15.83
2017-09-11T21:22:52.018Z,15.82
2017-09-11T21:25:19.411Z,15.79
2017-09-11T21:27:46.802Z,15.71
2017-09-11T21:30:14.339Z,15.61
2017-09-11T21:32:41.719Z,15.50
2017-09-11T21:35:09.111Z,15.41
2017-09-11T21:37:36.495Z,15.35
2017-09-11T21:40:03.883Z,15.26
2017-09-11T21:42:31.330Z,15.22
2017-09-11T21:44:58.702Z,15.23
2017-09-11T21:47:26.087Z,15.13
2017-09-11T21:49:53.485Z,15.11
2017-09-11T21:52:20.864Z,15.07
2017-09-11T21:54:48.554Z,15.09
2017-09-11T21:57:15.937Z,15.08
2017-09-11T21:59:43.331Z,15.06
2017-09-11T22:02:10.727Z,15.02
2017-09-11T22:04:38.113Z,15.01
2017-09-11T22:07:05.804Z,14.99
2017-09-11T22:09:33.195Z,14.95
2017-09-11T22:12:00.580Z,14.97
2017-09-11T22:14:27.972Z,14.99
2017-09-11T22:16:55.360Z,15.08
2017-09-11T22:19:22.893Z,15.13
2017-09-11T22:21:50.271Z,15.14
2017-09-11T22:24:17.654Z,15.11
2017-09-11T22:26:45.051Z,15.14
2017-09-11T22:29:12.447Z,15.17
2017-09-11T22:31:39.978Z,15.21
2017-09-11T22:34:07.364Z,15.31
2017-09-11T22:36:34.751Z,15.39
2017-09-11T22:39:02.147Z,15.47
2017-09-11T22:41:29.534Z,15.49
2017-09-11T22:43:57.098Z,15.54
2017-09-11T22:46:24.475Z,15.53
2017-09-11T22:48:51.867Z,15.53
2017-09-11T22:51:19.256Z,15.55
2017-09-11T22:53:46.642Z,15.56
2017-09-11T22:56:14.200Z,15.57
2017-09-11T22:58:41.587Z,15.61
2017-09-11T23:01:08.965Z,15.61
2017-09-11T23:03:36.350Z,15.63
2017-09-11T23:06:03.742Z,15.66
2017-09-11T23:08:31.159Z,15.72
2017-09-11T23:10:58.538Z,15.72
2017-09-11T23:13:25.920Z,15.78
2017-09-11T23:15:53.315Z,15.75
2017-09-11T23:18:20.718Z,15.74
2017-09-11T23:20:48.230Z,15.73
2017-09-11T23:23:15.603Z,15.78
2017-09-11T23:25:42.983Z,15.78
2017-09-11T23:28:10.385Z,15.78
2017-09-11T23:30:37.762Z,15.86
2017-09-11T23:33:05.303Z,15.88
2017-09-11T23:35:32.683Z,15.90
2017-09-11T23:38:00.073Z,15.90
2017-09-11T23:40:27.474Z,15.93
2017-09-11T23:42:54.870Z,15.93
2017-09-11T23:45:22.269Z,15.91
2017-09-11T23:47:49.646Z,15.97
2017-09-11T23:50:17.030Z,15.96
2017-09-11T23:52:44.419Z,15.97
2017-09-11T23:55:11.814Z,15.99
2017-09-11T23:57:39.550Z,15.94
